Time;durP1;ratioP1;P1;durP2;ratioP2;P2;SDS_P1;SDS_P2;PMS_P1;PMS_P2;Temp;Humidity;BMP_temperature;BMP_pressure;BME280_temperature;BME280_humidity;BME280_pressure;Samples;Min_cycle;Max_cycle;Signal;HPM_P1;HPM_P2
2022/07/15 00:00:08;;;;;;;3.47;1.27;;;13.00;99.90;;;;;;7355949;32;20172;-61
2022/07/15 00:04:10;;;;;;;3.53;1.20;;;13.00;99.90;;;;;;7362137;32;20127;-60
2022/07/15 00:08:11;;;;;;;6.22;1.40;;;13.00;99.90;;;;;;7360846;32;20111;-62
2022/07/15 00:12:13;;;;;;;4.60;1.42;;;12.90;99.90;;;;;;7362313;32;20872;-61
2022/07/15 00:16:15;;;;;;;6.05;1.42;;;12.80;99.90;;;;;;7361993;32;20219;-63
2022/07/15 00:20:18;;;;;;;4.68;1.40;;;12.70;99.90;;;;;;7360629;32;20182;-61
2022/07/15 00:24:20;;;;;;;9.27;1.60;;;12.60;99.90;;;;;;7361584;32;20564;-61
2022/07/15 00:28:24;;;;;;;3.95;1.48;;;12.50;99.90;;;;;;7360909;32;20467;-60
2022/07/15 00:32:26;;;;;;;3.10;1.45;;;12.50;99.90;;;;;;7361032;32;20111;-61
2022/07/15 00:36:28;;;;;;;9.02;1.85;;;12.40;99.90;;;;;;7361657;32;20122;-61
2022/07/15 00:40:30;;;;;;;3.22;1.87;;;12.40;99.90;;;;;;7360254;32;20509;-61
2022/07/15 00:44:32;;;;;;;3.42;1.60;;;12.40;99.90;;;;;;7361003;32;20107;-61
2022/07/15 00:48:34;;;;;;;6.85;1.80;;;12.30;99.90;;;;;;7359933;32;20122;-61
2022/07/15 00:52:39;;;;;;;3.47;1.50;;;12.30;99.90;;;;;;7360406;32;20227;-61
2022/07/15 00:56:48;;;;;;;6.10;1.90;;;12.20;99.90;;;;;;7342813;32;20468;-61
2022/07/15 01:00:50;;;;;;;7.25;1.58;;;12.20;99.90;;;;;;7359178;32;20155;-61
2022/07/15 01:04:53;;;;;;;5.15;1.62;;;12.10;99.90;;;;;;7360446;32;20103;-61
2022/07/15 01:08:55;;;;;;;3.92;1.83;;;12.00;99.90;;;;;;7358834;32;20202;-61
2022/07/15 01:12:57;;;;;;;7.10;1.90;;;11.90;99.90;;;;;;7360805;32;20228;-61
2022/07/15 01:16:59;;;;;;;7.53;1.77;;;11.80;99.90;;;;;;7360363;32;20160;-61
2022/07/15 01:21:01;;;;;;;9.82;2.53;;;11.80;99.90;;;;;;7358971;32;20096;-60
2022/07/15 01:25:03;;;;;;;4.07;1.85;;;11.80;99.90;;;;;;7360191;32;20115;-61
2022/07/15 01:29:04;;;;;;;6.57;1.58;;;11.80;99.90;;;;;;7358863;32;20547;-61
2022/07/15 01:33:06;;;;;;;4.78;1.80;;;11.80;99.90;;;;;;7359788;32;20198;-61
2022/07/15 01:37:08;;;;;;;4.82;1.90;;;11.90;99.90;;;;;;7359962;32;20130;-61
2022/07/15 01:41:10;;;;;;;6.78;2.10;;;11.90;99.90;;;;;;7358802;32;20500;-61
2022/07/15 01:45:13;;;;;;;3.95;1.85;;;12.00;99.90;;;;;;7359643;32;20168;-62
2022/07/15 01:49:29;;;;;;;8.70;2.30;;;12.00;99.90;;;;;;7358544;32;20187;-61
2022/07/15 01:53:31;;;;;;;6.75;2.28;;;12.10;99.90;;;;;;7359257;32;20228;-61
2022/07/15 01:57:33;;;;;;;4.43;1.80;;;12.20;99.90;;;;;;7348362;32;20183;-61
2022/07/15 02:01:35;;;;;;;5.12;2.10;;;12.20;99.90;;;;;;7358994;32;20119;-61
2022/07/15 02:05:37;;;;;;;6.60;2.15;;;12.20;99.90;;;;;;7359345;32;20561;-62
2022/07/15 02:09:39;;;;;;;5.65;2.08;;;12.30;99.90;;;;;;7357766;32;20186;-60
2022/07/15 02:13:41;;;;;;;6.47;2.08;;;12.30;99.90;;;;;;7359176;32;20174;-62
2022/07/15 02:17:42;;;;;;;6.57;2.10;;;12.40;99.90;;;;;;7357507;32;20167;-60
2022/07/15 02:21:44;;;;;;;7.75;1.83;;;12.40;99.90;;;;;;7358688;32;20129;-61
2022/07/15 02:25:46;;;;;;;4.18;1.40;;;12.40;99.90;;;;;;7358314;32;20216;-61
2022/07/15 02:29:48;;;;;;;3.50;1.70;;;12.50;99.90;;;;;;7357599;32;20208;-61
2022/07/15 02:33:49;;;;;;;6.03;2.05;;;12.50;99.90;;;;;;7358498;32;20126;-60
2022/07/15 02:37:51;;;;;;;4.40;1.92;;;12.50;99.90;;;;;;7357128;32;20217;-60
2022/07/15 02:41:53;;;;;;;8.25;2.12;;;12.50;99.90;;;;;;7346983;32;20135;-61
2022/07/15 02:45:55;;;;;;;4.97;1.87;;;12.50;99.90;;;;;;7332542;32;20123;-61
2022/07/15 02:49:57;;;;;;;8.95;2.10;;;12.50;99.90;;;;;;7345544;32;20102;-60
2022/07/15 02:53:59;;;;;;;8.52;2.03;;;12.60;99.90;;;;;;7357791;32;20513;-61
2022/07/15 02:58:02;;;;;;;7.03;2.20;;;12.70;99.90;;;;;;7343342;32;20544;-62
2022/07/15 03:02:03;;;;;;;10.00;2.10;;;12.70;99.90;;;;;;7358097;32;20155;-61
2022/07/15 03:06:05;;;;;;;5.82;2.08;;;12.60;99.90;;;;;;7358145;32;20168;-61
2022/07/15 03:10:09;;;;;;;7.40;2.00;;;12.70;99.90;;;;;;7357318;32;20117;-61
2022/07/15 03:14:10;;;;;;;7.37;2.00;;;12.60;99.90;;;;;;7357248;32;20273;-61
2022/07/15 03:18:12;;;;;;;7.35;2.17;;;12.50;99.90;;;;;;7356974;32;20163;-61
2022/07/15 03:22:14;;;;;;;7.93;2.12;;;12.40;99.90;;;;;;7357556;32;20176;-61
2022/07/15 03:26:16;;;;;;;5.03;1.70;;;12.40;99.90;;;;;;7357283;32;20255;-60
2022/07/15 03:30:22;;;;;;;8.35;2.03;;;12.40;99.90;;;;;;7359116;32;20096;-61
2022/07/15 03:34:27;;;;;;;7.78;2.58;;;12.30;99.90;;;;;;7361823;32;20127;-61
2022/07/15 03:38:28;;;;;;;5.47;2.20;;;12.20;99.90;;;;;;7362168;32;20095;-61
2022/07/15 03:42:30;;;;;;;7.28;1.90;;;12.10;99.90;;;;;;7361642;32;20108;-61
2022/07/15 03:46:33;;;;;;;4.95;1.75;;;12.00;99.90;;;;;;7362623;32;20778;-61
2022/07/15 03:50:35;;;;;;;6.53;1.95;;;11.90;99.90;;;;;;7361250;32;20697;-61
2022/07/15 03:54:37;;;;;;;4.28;2.15;;;11.80;99.90;;;;;;7362260;32;20159;-61
2022/07/15 03:58:39;;;;;;;10.15;2.00;;;11.80;99.90;;;;;;7351156;32;20577;-61
2022/07/15 04:02:41;;;;;;;5.55;2.47;;;11.70;99.90;;;;;;7362070;32;20145;-61
2022/07/15 04:06:48;;;;;;;;;;;11.80;99.90;;;;;;7362643;32;20196;-61
2022/07/15 04:10:50;;;;;;;7.93;2.28;;;11.80;99.90;;;;;;7360775;32;20007;-61
2022/07/15 04:14:51;;;;;;;9.13;2.37;;;11.80;99.90;;;;;;7361402;32;20159;-61
2022/07/15 04:18:53;;;;;;;5.68;2.00;;;11.90;99.90;;;;;;7360971;32;20596;-61
2022/07/15 04:22:55;;;;;;;5.75;2.20;;;11.90;99.90;;;;;;7360345;32;20651;-60
2022/07/15 04:26:57;;;;;;;5.78;2.12;;;11.90;99.90;;;;;;7361647;32;20158;-62
2022/07/15 04:30:58;;;;;;;5.75;1.87;;;12.00;99.90;;;;;;7360328;32;20175;-61
2022/07/15 04:35:01;;;;;;;4.87;2.20;;;12.10;99.90;;;;;;7361122;32;20129;-61
2022/07/15 04:39:03;;;;;;;7.03;2.22;;;12.30;99.90;;;;;;7360328;32;20131;-61
2022/07/15 04:43:05;;;;;;;7.35;2.22;;;12.30;99.90;;;;;;7360245;32;20119;-61
2022/07/15 04:47:07;;;;;;;5.47;1.95;;;12.60;99.90;;;;;;7361080;32;20155;-65
2022/07/15 04:51:09;;;;;;;7.00;2.10;;;12.70;99.90;;;;;;7334796;32;20100;-65
2022/07/15 04:55:10;;;;;;;7.70;2.12;;;13.30;99.90;;;;;;7349107;32;20606;-65
2022/07/15 04:59:12;;;;;;;7.85;1.55;;;14.00;99.90;;;;;;7343466;32;20160;-64
2022/07/15 05:03:14;;;;;;;7.25;1.90;;;14.60;99.90;;;;;;7359102;32;20502;-65
2022/07/15 05:07:16;;;;;;;6.97;1.45;;;15.20;99.90;;;;;;7359644;32;20231;-65
2022/07/15 05:11:18;;;;;;;6.05;1.70;;;15.70;99.90;;;;;;7357929;32;20500;-65
2022/07/15 05:15:20;;;;;;;6.80;1.65;;;16.30;99.90;;;;;;7360201;32;20170;-64
2022/07/15 05:19:22;;;;;;;10.95;1.80;;;16.70;99.90;;;;;;7359017;32;20134;-64
2022/07/15 05:23:23;;;;;;;6.15;1.55;;;17.50;99.90;;;;;;7359563;32;20103;-64
2022/07/15 05:27:25;;;;;;;7.87;2.12;;;17.90;99.90;;;;;;7359346;32;20099;-64
2022/07/15 05:31:27;;;;;;;7.53;2.33;;;17.50;99.90;;;;;;7358524;32;20158;-65
2022/07/15 05:35:29;;;;;;;7.65;1.67;;;17.60;99.90;;;;;;7359711;32;20115;-64
2022/07/15 05:39:31;;;;;;;5.80;1.35;;;17.80;99.90;;;;;;7358530;32;20182;-64
2022/07/15 05:43:32;;;;;;;8.55;1.50;;;18.20;99.90;;;;;;7359410;32;20528;-64
2022/07/15 05:47:34;;;;;;;8.57;1.42;;;18.20;99.90;;;;;;7358608;32;20133;-64
2022/07/15 05:51:37;;;;;;;7.05;1.30;;;18.00;99.90;;;;;;7358973;32;20185;-64
2022/07/15 05:55:39;;;;;;;7.47;1.92;;;17.90;99.90;;;;;;7341849;32;20164;-65
2022/07/15 05:59:40;;;;;;;9.85;1.60;;;17.50;99.90;;;;;;7357575;32;20463;-65
2022/07/15 06:03:43;;;;;;;8.95;1.55;;;17.30;99.90;;;;;;7358920;32;20515;-65
2022/07/15 06:07:44;;;;;;;6.37;1.30;;;17.40;99.90;;;;;;7358063;32;20091;-65
2022/07/15 06:11:46;;;;;;;8.13;1.60;;;17.70;99.90;;;;;;7358723;32;20301;-64
2022/07/15 06:15:49;;;;;;;8.27;1.33;;;17.50;99.90;;;;;;7358105;32;20126;-65
2022/07/15 06:19:51;;;;;;;6.30;1.55;;;18.00;99.90;;;;;;7358007;32;20221;-65
2022/07/15 06:23:52;;;;;;;6.07;1.17;;;18.70;99.90;;;;;;7358965;32;20189;-65
2022/07/15 06:27:54;;;;;;;8.05;1.00;;;19.30;99.90;;;;;;7357897;32;20122;-66
2022/07/15 06:31:56;;;;;;;6.93;1.65;;;20.40;99.90;;;;;;7357545;32;20194;-65
2022/07/15 06:35:57;;;;;;;6.57;1.15;;;20.90;99.90;;;;;;7358264;32;20163;-65
2022/07/15 06:39:59;;;;;;;10.93;1.40;;;21.60;99.90;;;;;;7357481;32;20206;-66
2022/07/15 06:44:01;;;;;;;5.07;0.80;;;22.10;99.90;;;;;;7357999;32;20115;-66
2022/07/15 06:48:03;;;;;;;3.62;1.00;;;22.50;99.90;;;;;;7357216;32;20123;-66
2022/07/15 06:52:05;;;;;;;4.22;1.00;;;21.50;99.90;;;;;;7357689;32;20107;-65
2022/07/15 06:56:08;;;;;;;6.30;1.12;;;21.60;99.90;;;;;;7340207;32;20177;-65
2022/07/15 07:00:11;;;;;;;4.65;0.90;;;20.80;99.90;;;;;;7357380;32;20119;-66
2022/07/15 07:04:13;;;;;;;4.37;0.93;;;21.20;99.90;;;;;;7357065;32;20563;-66
2022/07/15 07:08:15;;;;;;;7.93;0.95;;;20.60;99.90;;;;;;7356947;32;20155;-65
2022/07/15 07:12:17;;;;;;;6.55;1.37;;;20.80;99.90;;;;;;7357511;32;20099;-65
2022/07/15 07:16:19;;;;;;;7.15;0.98;;;19.90;99.90;;;;;;7357725;32;20123;-65
2022/07/15 07:20:21;;;;;;;5.97;1.02;;;19.40;99.90;;;;;;7356175;32;20095;-65
2022/07/15 07:24:22;;;;;;;5.60;1.20;;;18.80;99.90;;;;;;7357580;32;20091;-65
2022/07/15 07:28:24;;;;;;;6.25;1.00;;;18.40;99.90;;;;;;7356655;32;20166;-65
2022/07/15 07:32:26;;;;;;;6.75;1.42;;;18.10;99.90;;;;;;7357255;32;20107;-65
2022/07/15 07:36:28;;;;;;;7.28;1.92;;;17.80;99.90;;;;;;7356468;32;20184;-65
2022/07/15 07:40:30;;;;;;;7.28;2.03;;;17.70;99.90;;;;;;7356320;32;20119;-67
2022/07/15 07:44:32;;;;;;;7.57;1.98;;;17.50;99.90;;;;;;7356905;32;20103;-65
2022/07/15 07:48:33;;;;;;;11.10;2.37;;;17.20;99.90;;;;;;7355209;32;20172;-65
2022/07/15 07:52:35;;;;;;;10.48;1.90;;;16.90;99.90;;;;;;7356491;32;20131;-65
2022/07/15 07:56:37;;;;;;;6.35;1.65;;;16.70;99.90;;;;;;7351030;32;20699;-65
2022/07/15 08:00:39;;;;;;;8.02;2.67;;;16.80;99.90;;;;;;7330466;32;20496;-65
2022/07/15 08:04:41;;;;;;;11.52;2.08;;;16.80;99.90;;;;;;7331526;32;20152;-65
2022/07/15 08:08:43;;;;;;;7.07;2.20;;;16.90;99.90;;;;;;7330248;32;20108;-66
2022/07/15 08:12:45;;;;;;;8.90;2.15;;;16.90;99.90;;;;;;7355978;32;20579;-65
2022/07/15 08:16:47;;;;;;;6.65;2.10;;;17.10;99.90;;;;;;7358390;32;20224;-65
2022/07/15 08:20:49;;;;;;;7.12;2.20;;;17.20;99.90;;;;;;7360766;32;20104;-65
2022/07/15 08:24:51;;;;;;;6.62;2.30;;;17.40;99.90;;;;;;7361309;32;20123;-65
2022/07/15 08:28:53;;;;;;;10.45;2.20;;;17.60;99.90;;;;;;7360316;32;20194;-65
2022/07/15 08:33:06;;;;;;;6.40;2.10;;;17.40;99.90;;;;;;7361200;32;20115;-65
2022/07/15 08:37:09;;;;;;;7.12;2.47;;;17.40;99.90;;;;;;7360739;32;20186;-64
2022/07/15 08:41:11;;;;;;;5.10;1.85;;;18.50;99.90;;;;;;7360033;32;20467;-64
2022/07/15 08:45:15;;;;;;;10.18;1.80;;;19.60;99.90;;;;;;7360038;32;20146;-64
2022/07/15 08:49:18;;;;;;;5.32;1.58;;;20.30;99.90;;;;;;7360021;32;20442;-64
2022/07/15 08:53:21;;;;;;;6.25;1.50;;;21.20;99.90;;;;;;7357432;32;20100;-65
2022/07/15 08:57:23;;;;;;;7.25;1.30;;;22.10;99.90;;;;;;7345509;32;20125;-65
2022/07/15 09:01:25;;;;;;;5.10;1.30;;;22.90;99.90;;;;;;7359041;32;20122;-65
2022/07/15 09:05:30;;;;;;;3.92;1.20;;;23.50;99.90;;;;;;7360247;32;20186;-64
2022/07/15 09:09:34;;;;;;;5.25;1.15;;;22.80;99.90;;;;;;7359333;32;20123;-64
2022/07/15 09:13:38;;;;;;;5.85;1.55;;;22.10;99.90;;;;;;7359887;32;20190;-65
2022/07/15 09:17:40;;;;;;;6.37;1.17;;;22.10;99.40;;;;;;7359300;32;20137;-65
2022/07/15 09:21:42;;;;;;;5.55;1.52;;;23.20;99.90;;;;;;7360022;32;20294;-65
2022/07/15 09:25:44;;;;;;;7.12;1.40;;;23.00;96.60;;;;;;7360002;32;20125;-64
2022/07/15 09:34:06;;;;;;;4.25;1.02;;;21.70;97.80;;;;;;7359969;32;20127;-64
2022/07/15 09:38:08;;;;;;;3.53;0.73;;;21.00;98.60;;;;;;7359014;32;20209;-64
2022/07/15 09:42:09;;;;;;;4.43;1.10;;;20.70;99.90;;;;;;7359434;32;20119;-65
2022/07/15 09:46:11;;;;;;;6.15;1.42;;;20.20;99.90;;;;;;7359180;32;20417;-64
2022/07/15 09:50:14;;;;;;;5.47;1.15;;;20.00;99.90;;;;;;7358511;32;20137;-65
2022/07/15 09:54:17;;;;;;;5.10;0.98;;;20.60;98.50;;;;;;7351030;32;20111;-65
2022/07/15 09:58:21;;;;;;;3.78;1.08;;;20.70;99.90;;;;;;7349204;32;20108;-65
2022/07/15 10:02:23;;;;;;;6.07;1.02;;;21.30;98.80;;;;;;7359041;32;20209;-65
2022/07/15 10:06:27;;;;;;;4.00;1.02;;;21.70;98.80;;;;;;7359226;32;20823;-65
2022/07/15 10:10:29;;;;;;;4.22;1.02;;;21.20;98.90;;;;;;7357499;32;20147;-65
2022/07/15 10:14:55;;;;;;;4.70;0.90;;;21.00;99.30;;;;;;7358611;32;20127;-65
2022/07/15 10:19:17;;;;;;;4.62;1.10;;;20.80;99.70;;;;;;7357426;32;20159;-64
2022/07/15 10:23:53;;;;;;;6.28;1.10;;;20.50;99.90;;;;;;7358938;32;20468;-65
2022/07/15 10:28:14;;;;;;;5.55;1.20;;;20.30;99.90;;;;;;7357578;32;20138;-66
2022/07/15 10:32:15;;;;;;;5.53;1.20;;;20.40;99.90;;;;;;7358846;32;20100;-65
2022/07/15 10:36:18;;;;;;;5.75;1.08;;;20.90;99.40;;;;;;7357791;32;20107;-65
2022/07/15 10:40:20;;;;;;;6.10;1.20;;;21.20;97.60;;;;;;7357216;32;20126;-65
2022/07/15 10:44:22;;;;;;;2.67;0.90;;;20.50;99.90;;;;;;7357725;32;20190;-65
2022/07/15 10:48:26;;;;;;;3.30;0.70;;;21.00;99.90;;;;;;7357401;32;20533;-65
2022/07/15 10:52:30;;;;;;;4.45;0.90;;;21.20;98.90;;;;;;7357225;32;20131;-65
2022/07/15 10:56:34;;;;;;;3.25;0.98;;;20.70;97.90;;;;;;7352742;32;20199;-66
2022/07/15 11:00:37;;;;;;;3.15;0.80;;;20.30;99.50;;;;;;7331432;32;20183;-66
2022/07/15 11:04:39;;;;;;;8.25;1.10;;;20.30;99.40;;;;;;7332574;32;20741;-65
2022/07/15 11:08:44;;;;;;;6.25;1.25;;;20.20;99.90;;;;;;7351472;32;20175;-63
2022/07/15 11:12:49;;;;;;;6.78;0.88;;;20.50;99.70;;;;;;7357353;32;20194;-64
2022/07/15 11:16:59;;;;;;;3.72;0.88;;;20.90;99.00;;;;;;7357611;32;20518;-65
2022/07/15 11:21:02;;;;;;;3.70;0.80;;;20.70;99.90;;;;;;7355444;32;20206;-67
2022/07/15 11:25:05;;;;;;;4.82;0.80;;;20.60;99.10;;;;;;7357345;32;20519;-65
2022/07/15 11:29:07;;;;;;;3.97;0.82;;;20.40;99.90;;;;;;7356546;32;20112;-65
2022/07/15 11:33:12;;;;;;;3.58;0.52;;;20.90;99.90;;;;;;7357510;32;20190;-65
2022/07/15 11:37:18;;;;;;;4.07;0.93;;;21.40;98.40;;;;;;7357536;32;20174;-65
2022/07/15 11:45:41;;;;;;;4.75;0.88;;;22.30;91.90;;;;;;7357013;32;20107;-66
2022/07/15 11:49:43;;;;;;;7.00;0.80;;;21.80;95.30;;;;;;7356713;32;20142;-65
2022/07/15 11:53:47;;;;;;;2.92;0.95;;;21.40;97.00;;;;;;7356735;32;20711;-65
2022/07/15 11:57:51;;;;;;;2.08;0.65;;;21.10;96.70;;;;;;7350621;32;20214;-66
2022/07/15 12:02:10;;;;;;;3.80;0.80;;;21.30;96.80;;;;;;7362021;32;20129;-66
2022/07/15 12:06:12;;;;;;;2.25;0.47;;;22.10;95.90;;;;;;7362115;32;20131;-66
2022/07/15 12:10:14;;;;;;;3.62;0.73;;;22.00;92.60;;;;;;7360892;32;20107;-65
2022/07/15 12:14:23;;;;;;;2.40;0.40;;;21.50;94.80;;;;;;7360780;32;20121;-65
2022/07/15 12:18:25;;;;;;;1.52;0.40;;;21.50;92.70;;;;;;7360945;32;20503;-65
2022/07/15 12:22:27;;;;;;;3.95;0.60;;;21.50;93.10;;;;;;7361265;32;20095;-65
2022/07/15 12:26:29;;;;;;;3.55;0.65;;;21.40;95.60;;;;;;7360505;32;20267;-65
2022/07/15 12:30:33;;;;;;;4.05;0.82;;;21.30;93.90;;;;;;7359970;32;20174;-65
2022/07/15 12:34:47;;;;;;;1.70;0.40;;;21.30;94.60;;;;;;7361217;32;20454;-65
2022/07/15 12:39:14;;;;;;;3.60;0.52;;;21.00;94.00;;;;;;7360030;32;20099;-65
2022/07/15 12:44:08;;;;;;;1.85;0.50;;;20.80;93.50;;;;;;7360855;32;20118;-65
2022/07/15 12:48:16;;;;;;;3.75;0.68;;;20.60;94.10;;;;;;7358076;32;20630;-65
2022/07/15 12:52:39;;;;;;;2.15;0.40;;;20.80;93.50;;;;;;7360800;32;20108;-65
2022/07/15 12:56:52;;;;;;;3.10;0.55;;;21.00;94.50;;;;;;7354286;32;20107;-65
2022/07/15 13:01:04;;;;;;;4.20;0.50;;;21.00;95.80;;;;;;7334197;32;20174;-65
2022/07/15 13:05:06;;;;;;;3.67;0.47;;;20.90;95.00;;;;;;7350264;32;20144;-65
2022/07/15 13:09:08;;;;;;;2.42;0.55;;;21.50;95.40;;;;;;7359793;32;20542;-65
2022/07/15 13:13:12;;;;;;;2.45;0.52;;;21.80;91.80;;;;;;7360185;32;20486;-65
2022/07/15 13:17:14;;;;;;;3.58;0.50;;;21.70;89.50;;;;;;7352400;32;20157;-65
2022/07/15 13:21:16;;;;;;;2.00;0.50;;;22.00;89.90;;;;;;7346072;32;20095;-65
2022/07/15 13:25:24;;;;;;;2.80;0.70;;;22.40;89.80;;;;;;7359531;32;20221;-65
2022/07/15 13:29:27;;;;;;;3.53;0.75;;;22.80;88.00;;;;;;7359462;32;20115;-65
2022/07/15 13:33:29;;;;;;;2.08;0.43;;;23.50;88.20;;;;;;7359198;32;20258;-65
2022/07/15 13:37:31;;;;;;;1.83;0.50;;;24.00;83.20;;;;;;7359063;32;20156;-64
2022/07/15 13:41:33;;;;;;;1.77;0.40;;;23.20;81.90;;;;;;7358909;32;20198;-65
2022/07/15 13:45:34;;;;;;;2.28;0.70;;;22.60;86.80;;;;;;7359864;32;20536;-65
2022/07/15 13:54:01;;;;;;;2.50;0.50;;;22.30;88.20;;;;;;7357372;32;20202;-65
2022/07/15 13:58:06;;;;;;;3.90;0.82;;;22.90;89.00;;;;;;7358473;32;20095;-65
2022/07/15 14:02:08;;;;;;;3.20;0.82;;;23.10;87.60;;;;;;7359449;32;20111;-65
2022/07/15 14:06:10;;;;;;;3.90;0.75;;;23.50;87.90;;;;;;7359430;32;20203;-66
2022/07/15 14:10:13;;;;;;;2.67;0.75;;;23.70;81.30;;;;;;7356958;32;20127;-65
2022/07/15 14:14:15;;;;;;;7.55;1.40;;;23.70;82.10;;;;;;7332787;32;20175;-65
2022/07/15 14:18:16;;;;;;;5.57;1.10;;;23.20;84.40;;;;;;7332936;32;20112;-66
2022/07/15 14:22:18;;;;;;;4.25;1.10;;;23.20;85.20;;;;;;7333680;32;20213;-65
2022/07/15 14:26:21;;;;;;;7.30;1.37;;;22.90;86.00;;;;;;7333679;32;20153;-65
2022/07/15 14:30:23;;;;;;;5.10;0.80;;;23.10;85.70;;;;;;7353899;32;20106;-65
2022/07/15 14:34:25;;;;;;;2.17;0.50;;;23.20;84.90;;;;;;7358807;32;20111;-66
2022/07/15 14:38:27;;;;;;;2.75;0.52;;;23.40;84.80;;;;;;7357686;32;20146;-65
2022/07/15 14:42:29;;;;;;;2.03;0.40;;;23.20;81.20;;;;;;7358331;32;20182;-65
2022/07/15 14:46:31;;;;;;;3.12;0.55;;;23.10;84.00;;;;;;7357905;32;20143;-66
2022/07/15 14:50:33;;;;;;;3.35;0.68;;;22.80;85.80;;;;;;7356927;32;20421;-65
2022/07/15 14:54:35;;;;;;;3.30;0.50;;;22.70;85.60;;;;;;7347400;32;20209;-67
2022/07/15 14:58:37;;;;;;;4.30;0.70;;;22.90;85.00;;;;;;7350118;32;20168;-65
2022/07/15 15:02:39;;;;;;;1.60;0.35;;;23.40;83.00;;;;;;7357423;32;20537;-66
2022/07/15 15:06:41;;;;;;;4.00;0.55;;;23.20;84.00;;;;;;7358122;32;20515;-66
2022/07/15 15:10:43;;;;;;;2.78;0.62;;;23.20;82.70;;;;;;7357051;32;20574;-66
2022/07/15 15:14:45;;;;;;;4.00;0.60;;;23.00;83.40;;;;;;7357971;32;20111;-65
2022/07/15 15:18:46;;;;;;;1.98;0.60;;;23.10;83.10;;;;;;7356620;32;20175;-65
2022/07/15 15:22:48;;;;;;;1.58;0.40;;;23.10;82.50;;;;;;7358038;32;20123;-65
2022/07/15 15:26:51;;;;;;;3.90;0.52;;;22.80;85.50;;;;;;7361017;32;20175;-65
2022/07/15 15:30:54;;;;;;;4.43;0.65;;;22.50;84.30;;;;;;7362032;32;20164;-66
2022/07/15 15:34:56;;;;;;;4.85;0.50;;;22.50;85.60;;;;;;7362350;32;20587;-65
2022/07/15 15:38:58;;;;;;;1.92;0.60;;;22.00;85.30;;;;;;7361372;32;20771;-65
2022/07/15 15:43:00;;;;;;;5.18;0.60;;;21.70;88.20;;;;;;7362268;32;20115;-65
2022/07/15 15:47:02;;;;;;;4.18;0.70;;;21.40;87.50;;;;;;7362162;32;20107;-66
2022/07/15 15:51:04;;;;;;;4.22;0.65;;;21.00;88.90;;;;;;7361044;32;20162;-65
2022/07/15 15:55:06;;;;;;;4.43;0.75;;;21.10;89.70;;;;;;7361845;32;20135;-66
2022/07/15 15:59:08;;;;;;;6.80;1.00;;;21.10;90.00;;;;;;7339573;32;20134;-65
2022/07/15 16:03:10;;;;;;;4.93;0.95;;;21.50;87.80;;;;;;7348071;32;20861;-65
2022/07/15 16:07:11;;;;;;;2.53;0.77;;;21.80;86.70;;;;;;7361999;32;20102;-65
2022/07/15 16:11:13;;;;;;;2.83;0.73;;;21.90;84.50;;;;;;7360583;32;20563;-67
2022/07/15 16:15:15;;;;;;;3.22;0.65;;;22.00;82.60;;;;;;7362014;32;20147;-65
2022/07/15 16:19:17;;;;;;;1.52;0.47;;;22.10;83.80;;;;;;7360418;32;20122;-65
2022/07/15 16:23:19;;;;;;;3.45;0.60;;;21.80;85.10;;;;;;7361767;32;20551;-65
2022/07/15 16:27:21;;;;;;;3.35;0.37;;;21.70;87.10;;;;;;7361393;32;20164;-65
2022/07/15 16:31:23;;;;;;;2.35;0.45;;;21.80;87.40;;;;;;7360684;32;20495;-66
2022/07/15 16:35:26;;;;;;;2.03;0.68;;;21.50;88.20;;;;;;7360702;32;20107;-65
2022/07/15 16:39:28;;;;;;;2.12;0.40;;;21.70;89.50;;;;;;7359647;32;20175;-67
2022/07/15 16:43:30;;;;;;;3.72;0.80;;;21.80;88.90;;;;;;7360620;32;20209;-65
2022/07/15 16:47:32;;;;;;;5.15;0.60;;;21.80;85.40;;;;;;7360668;32;20183;-65
2022/07/15 16:51:33;;;;;;;2.10;0.40;;;21.70;86.40;;;;;;7359142;32;20123;-65
2022/07/15 16:55:35;;;;;;;5.22;0.93;;;21.80;87.10;;;;;;7344062;32;20164;-65
2022/07/15 16:59:37;;;;;;;3.60;1.35;;;22.00;85.40;;;;;;7358491;32;20183;-65
2022/07/15 17:03:39;;;;;;;6.78;1.65;;;22.10;84.50;;;;;;7360497;32;20507;-65
2022/07/15 17:07:41;;;;;;;5.45;1.70;;;22.20;83.70;;;;;;7359133;32;20129;-65
2022/07/15 17:11:42;;;;;;;7.07;1.58;;;22.20;85.00;;;;;;7359988;32;20129;-65
2022/07/15 17:15:44;;;;;;;4.40;1.30;;;22.10;84.00;;;;;;7359842;32;20308;-65
2022/07/15 17:19:46;;;;;;;3.37;1.00;;;22.00;84.40;;;;;;7359118;32;20204;-66
2022/07/15 17:23:48;;;;;;;1.48;0.55;;;22.10;85.00;;;;;;7359631;32;20575;-65
2022/07/15 17:27:50;;;;;;;3.37;0.70;;;22.20;84.90;;;;;;7358672;32;20540;-65
2022/07/15 17:31:51;;;;;;;4.18;0.50;;;22.30;84.10;;;;;;7359441;32;20570;-66
2022/07/15 17:35:53;;;;;;;6.72;0.65;;;22.20;83.60;;;;;;7359419;32;20210;-66
2022/07/15 17:39:55;;;;;;;4.37;0.60;;;22.20;85.20;;;;;;7358213;32;20496;-65
2022/07/15 17:43:57;;;;;;;4.32;0.55;;;22.10;84.00;;;;;;7359213;32;20164;-65
2022/07/15 17:47:59;;;;;;;4.18;0.62;;;22.00;84.20;;;;;;7358050;32;20471;-65
2022/07/15 17:52:02;;;;;;;1.30;0.45;;;22.10;82.90;;;;;;7358713;32;20833;-66
2022/07/15 17:56:04;;;;;;;6.07;0.50;;;21.90;83.80;;;;;;7339107;32;20211;-64
2022/07/15 18:00:08;;;;;;;3.67;0.50;;;21.80;82.20;;;;;;7332819;32;20131;-64
2022/07/15 18:04:10;;;;;;;2.72;0.55;;;21.70;83.60;;;;;;7333406;32;20183;-65
2022/07/15 18:08:13;;;;;;;2.87;0.62;;;21.60;84.60;;;;;;7332231;32;20184;-67
2022/07/15 18:12:15;;;;;;;2.70;0.60;;;21.40;85.60;;;;;;7335652;32;20111;-65
2022/07/15 18:16:17;;;;;;;1.90;0.50;;;21.20;86.60;;;;;;7358430;32;20167;-65
2022/07/15 18:20:19;;;;;;;1.85;0.35;;;21.10;90.00;;;;;;7358153;32;20147;-65
2022/07/15 18:24:24;;;;;;;2.28;0.50;;;21.00;88.50;;;;;;7358761;32;20154;-65
2022/07/15 18:28:25;;;;;;;5.15;0.52;;;20.90;89.00;;;;;;7357489;32;20111;-65
2022/07/15 18:32:27;;;;;;;6.57;0.70;;;20.70;89.00;;;;;;7357604;32;20118;-66
2022/07/15 18:36:31;;;;;;;5.53;0.70;;;20.60;94.10;;;;;;7358017;32;20175;-65
2022/07/15 18:40:33;;;;;;;2.60;0.85;;;20.30;93.60;;;;;;7356957;32;20112;-65
2022/07/15 18:44:35;;;;;;;6.90;0.80;;;20.20;93.70;;;;;;7358221;32;20191;-65
2022/07/15 18:48:38;;;;;;;2.60;0.70;;;20.00;99.20;;;;;;7357079;32;20513;-66
2022/07/15 18:52:40;;;;;;;5.50;0.80;;;19.90;99.70;;;;;;7357735;32;20095;-65
2022/07/15 18:56:41;;;;;;;2.05;0.68;;;19.70;99.90;;;;;;7351768;32;20547;-66
2022/07/15 19:00:43;;;;;;;5.18;0.85;;;19.40;99.90;;;;;;7330979;32;20135;-66
2022/07/15 19:04:45;;;;;;;1.87;0.55;;;19.40;99.90;;;;;;7351234;32;20683;-65
2022/07/15 19:08:47;;;;;;;3.65;0.70;;;19.20;99.90;;;;;;7356720;32;20138;-66
2022/07/15 19:12:49;;;;;;;3.35;0.50;;;19.00;99.90;;;;;;7357714;32;20111;-66
2022/07/15 19:16:51;;;;;;;4.20;0.65;;;19.00;99.90;;;;;;7357594;32;20271;-66
2022/07/15 19:20:54;;;;;;;2.12;0.70;;;18.80;99.90;;;;;;7356464;32;20170;-66
2022/07/15 19:24:58;;;;;;;1.98;0.50;;;18.70;99.90;;;;;;7357382;32;20107;-65
2022/07/15 19:29:00;;;;;;;2.97;0.77;;;18.60;99.90;;;;;;7355231;32;20143;-66
2022/07/15 19:33:02;;;;;;;3.42;0.60;;;18.40;99.90;;;;;;7357117;32;20138;-65
2022/07/15 19:37:04;;;;;;;1.67;0.70;;;18.30;99.90;;;;;;7350061;32;20127;-66
2022/07/15 19:41:08;;;;;;;8.60;0.80;;;18.00;99.90;;;;;;7330669;32;20164;-66
2022/07/15 19:45:11;;;;;;;5.30;1.00;;;17.90;99.90;;;;;;7337391;32;20134;-66
2022/07/15 19:49:13;;;;;;;5.22;1.02;;;17.70;99.90;;;;;;7331304;32;20112;-66
2022/07/15 19:53:15;;;;;;;3.08;0.60;;;17.50;99.90;;;;;;7344240;32;20175;-66
2022/07/15 19:57:17;;;;;;;2.42;0.70;;;17.30;99.90;;;;;;7331989;32;20188;-63
2022/07/15 20:01:19;;;;;;;4.07;0.60;;;17.00;99.90;;;;;;7331328;32;20180;-61
2022/07/15 20:05:23;;;;;;;3.87;0.80;;;16.90;99.90;;;;;;7334062;32;20367;-62
2022/07/15 20:09:25;;;;;;;3.55;0.80;;;16.70;99.90;;;;;;7336348;32;20230;-63
2022/07/15 20:13:26;;;;;;;2.40;0.82;;;16.50;99.90;;;;;;7360152;32;20134;-62
2022/07/15 20:17:28;;;;;;;3.78;0.75;;;16.30;99.90;;;;;;7361830;32;20601;-61
2022/07/15 20:21:30;;;;;;;4.97;0.80;;;16.10;99.90;;;;;;7361009;32;20157;-63
2022/07/15 20:25:32;;;;;;;4.10;0.75;;;16.00;99.90;;;;;;7361437;32;20508;-63
2022/07/15 20:29:33;;;;;;;3.25;0.70;;;15.90;99.90;;;;;;7360545;32;20127;-62
2022/07/15 20:33:35;;;;;;;2.85;1.00;;;15.70;99.90;;;;;;7361300;32;20131;-63
2022/07/15 20:37:38;;;;;;;3.50;0.82;;;15.60;99.90;;;;;;7360125;32;20224;-62
2022/07/15 20:41:40;;;;;;;1.37;0.70;;;15.50;99.90;;;;;;7353325;32;20126;-63
2022/07/15 20:46:02;;;;;;;1.70;0.70;;;15.30;99.90;;;;;;7360943;32;20498;-61
2022/07/15 20:50:04;;;;;;;3.80;0.70;;;15.10;99.90;;;;;;7360353;32;20164;-61
2022/07/15 20:54:06;;;;;;;10.95;1.23;;;15.00;99.90;;;;;;7353581;32;20103;-61
2022/07/15 20:58:15;;;;;;;2.42;0.70;;;14.90;99.90;;;;;;7350489;32;20188;-61
2022/07/15 21:02:17;;;;;;;2.75;0.70;;;14.80;99.90;;;;;;7361357;32;20131;-62
2022/07/15 21:06:20;;;;;;;4.25;0.90;;;14.70;99.90;;;;;;7360914;32;20129;-61
2022/07/15 21:10:22;;;;;;;2.20;0.85;;;14.60;99.90;;;;;;7344207;32;20115;-62
2022/07/15 21:14:24;;;;;;;4.53;0.85;;;14.50;99.90;;;;;;7349519;32;20271;-62
2022/07/15 21:18:27;;;;;;;4.72;0.93;;;14.40;99.90;;;;;;7359263;32;20176;-62